createdAt,value
2023-04-16T00:01:41.696Z,2.00
2023-04-16T00:04:10.002Z,1.90
2023-04-16T00:06:38.303Z,2.20
2023-04-16T00:09:06.289Z,2.30
2023-04-16T00:11:34.751Z,2.10
2023-04-16T00:14:02.885Z,2.00
2023-04-16T00:16:31.540Z,1.60
2023-04-16T00:18:59.988Z,1.90
2023-04-16T00:21:28.579Z,2.10
2023-04-16T00:23:57.062Z,1.70
2023-04-16T00:26:25.443Z,2.10
2023-04-16T00:28:54.021Z,1.90
2023-04-16T00:31:32.337Z,1.90
2023-04-16T00:34:01.080Z,2.20
2023-04-16T00:36:29.712Z,1.90
2023-04-16T00:38:57.881Z,1.90
2023-04-16T00:41:26.973Z,1.80
2023-04-16T00:43:55.045Z,1.70
2023-04-16T00:46:24.623Z,2.50
2023-04-16T00:48:55.288Z,2.00
2023-04-16T00:51:23.978Z,2.10
2023-04-16T00:53:52.632Z,2.30
2023-04-16T00:56:24.132Z,2.30
2023-04-16T00:58:52.690Z,1.60
2023-04-16T01:01:20.998Z,1.70
2023-04-16T01:03:51.871Z,1.90
2023-04-16T01:06:20.204Z,2.00
2023-04-16T01:08:48.989Z,2.10
2023-04-16T01:11:17.688Z,1.80
2023-04-16T01:13:45.958Z,1.90
2023-04-16T01:16:14.892Z,1.90
2023-04-16T01:18:43.120Z,1.50
2023-04-16T01:21:11.282Z,2.30
2023-04-16T01:23:39.306Z,2.00
2023-04-16T01:26:07.684Z,3.00
2023-04-16T01:28:36.319Z,2.60
2023-04-16T01:31:04.456Z,2.20
2023-04-16T01:33:55.708Z,2.90
2023-04-16T01:36:23.995Z,2.80
2023-04-16T01:38:52.573Z,2.70
2023-04-16T01:41:20.611Z,2.90
2023-04-16T01:43:48.717Z,3.20
2023-04-16T01:46:31.125Z,3.00
2023-04-16T01:48:59.716Z,3.10
2023-04-16T01:51:28.529Z,3.20
2023-04-16T01:53:58.391Z,2.60
2023-04-16T01:56:26.678Z,2.30
2023-04-16T01:58:54.977Z,2.50
2023-04-16T02:03:53.624Z,3.40
2023-04-16T02:06:21.844Z,4.40
2023-04-16T02:08:50.122Z,3.90
2023-04-16T02:11:18.236Z,2.70
2023-04-16T02:13:46.914Z,2.70
2023-04-16T02:16:15.106Z,5.30
2023-04-16T02:19:11.327Z,4.70
2023-04-16T02:21:39.711Z,3.60
2023-04-16T02:24:08.468Z,3.00
2023-04-16T02:26:36.730Z,2.90
2023-04-16T02:29:07.399Z,2.60
2023-04-16T02:31:43.284Z,1.80
2023-04-16T02:34:12.820Z,1.90
2023-04-16T02:36:42.333Z,3.00
2023-04-16T02:39:11.703Z,2.80
2023-04-16T02:41:40.014Z,2.40
2023-04-16T02:44:10.746Z,2.60
2023-04-16T02:46:39.182Z,2.70
2023-04-16T02:49:07.286Z,2.70
2023-04-16T02:51:35.899Z,2.60
2023-04-16T02:54:04.244Z,3.10
2023-04-16T02:56:32.791Z,3.10
2023-04-16T02:59:11.414Z,3.00
2023-04-16T03:01:39.973Z,2.90
2023-04-16T03:04:08.171Z,2.70
2023-04-16T03:06:36.289Z,3.20
2023-04-16T03:09:04.566Z,2.30
2023-04-16T03:11:32.959Z,2.20
2023-04-16T03:14:01.118Z,2.10
2023-04-16T03:16:29.497Z,1.90
2023-04-16T03:18:57.727Z,3.60
2023-04-16T03:21:27.722Z,3.30
2023-04-16T03:23:56.275Z,3.30
2023-04-16T03:26:24.655Z,2.90
2023-04-16T03:28:53.042Z,2.60
2023-04-16T03:31:24.725Z,2.40
2023-04-16T03:33:53.812Z,2.10
2023-04-16T03:36:22.992Z,2.10
2023-04-16T03:38:51.270Z,2.30
2023-04-16T03:41:19.794Z,2.10
2023-04-16T03:43:48.127Z,2.20
2023-04-16T03:46:17.165Z,2.50
2023-04-16T03:48:46.318Z,2.20
2023-04-16T03:51:14.594Z,2.20
2023-04-16T03:53:43.124Z,2.50
2023-04-16T03:56:11.303Z,1.80
2023-04-16T03:58:52.025Z,1.50
2023-04-16T04:01:20.409Z,1.70
2023-04-16T04:03:54.894Z,2.70
2023-04-16T04:06:23.106Z,2.20
2023-04-16T04:08:51.782Z,2.30
2023-04-16T04:11:20.175Z,2.50
2023-04-16T04:13:48.352Z,2.30
2023-04-16T04:16:16.536Z,1.80
2023-04-16T04:18:45.297Z,1.50
2023-04-16T04:21:13.560Z,2.40
2023-04-16T04:23:42.673Z,2.70
2023-04-16T04:26:10.971Z,1.90
2023-04-16T04:28:39.743Z,1.50
2023-04-16T04:31:07.911Z,1.80
2023-04-16T04:33:36.351Z,1.70
2023-04-16T04:36:04.768Z,1.40
2023-04-16T04:38:34.071Z,1.90
2023-04-16T04:41:02.178Z,1.60
2023-04-16T04:43:33.285Z,1.70
2023-04-16T04:46:01.482Z,1.70
2023-04-16T04:48:29.941Z,1.80
2023-04-16T04:50:58.754Z,1.50
2023-04-16T04:53:27.062Z,2.20
2023-04-16T04:55:58.703Z,2.60
2023-04-16T04:58:34.258Z,2.50
2023-04-16T05:01:02.639Z,4.00
2023-04-16T05:03:31.245Z,3.40
2023-04-16T05:05:59.451Z,3.80
2023-04-16T05:08:27.647Z,3.60
2023-04-16T05:10:56.114Z,4.00
2023-04-16T05:13:24.199Z,4.00
2023-04-16T05:15:52.409Z,4.50
2023-04-16T05:18:20.733Z,4.70
2023-04-16T05:20:48.806Z,5.20
2023-04-16T05:23:17.698Z,5.10
2023-04-16T05:25:45.978Z,5.60
2023-04-16T05:28:14.250Z,5.80
2023-04-16T05:30:42.608Z,5.90
2023-04-16T05:33:11.215Z,6.30
2023-04-16T05:35:39.491Z,6.30
2023-04-16T05:38:07.463Z,6.50
2023-04-16T05:40:35.481Z,6.10
2023-04-16T05:43:03.714Z,6.70
2023-04-16T05:45:33.627Z,7.70
2023-04-16T05:48:01.806Z,7.00
2023-04-16T05:50:30.096Z,7.20
2023-04-16T05:52:58.458Z,7.10
2023-04-16T05:55:26.506Z,6.70
2023-04-16T05:57:55.000Z,6.80
2023-04-16T06:00:23.150Z,7.20
2023-04-16T06:02:52.295Z,6.30
2023-04-16T06:05:21.561Z,6.20
2023-04-16T06:07:49.693Z,6.50
2023-04-16T06:10:17.875Z,6.80
2023-04-16T06:12:46.198Z,6.50
2023-04-16T06:15:14.652Z,6.70
2023-04-16T06:17:42.802Z,7.20
2023-04-16T06:20:12.007Z,6.70
2023-04-16T06:22:40.440Z,6.90
2023-04-16T06:25:09.222Z,6.70
2023-04-16T06:27:37.340Z,5.80
2023-04-16T06:30:11.473Z,6.80
2023-04-16T06:32:39.704Z,6.90
2023-04-16T06:35:08.456Z,7.20
2023-04-16T06:40:05.339Z,6.60
2023-04-16T06:42:33.510Z,6.40
2023-04-16T06:45:01.613Z,6.00
2023-04-16T06:47:29.939Z,6.90
2023-04-16T06:49:58.030Z,6.70
2023-04-16T06:52:26.167Z,6.90
2023-04-16T06:54:54.505Z,6.90
2023-04-16T06:57:22.611Z,7.30
2023-04-16T06:59:50.729Z,7.20
2023-04-16T07:02:19.057Z,6.40
2023-04-16T07:07:15.527Z,7.50
2023-04-16T07:12:23.276Z,7.70
2023-04-16T07:14:54.207Z,7.50
2023-04-16T07:17:22.507Z,7.50
2023-04-16T07:19:53.736Z,8.00
2023-04-16T07:22:29.204Z,7.50
2023-04-16T07:24:57.595Z,6.90
2023-04-16T07:27:34.785Z,6.90
2023-04-16T07:30:03.130Z,7.60
2023-04-16T07:32:31.415Z,7.80
2023-04-16T07:34:59.656Z,6.90
2023-04-16T07:37:27.960Z,6.60
2023-04-16T07:39:57.811Z,7.40
2023-04-16T07:42:26.456Z,8.20
2023-04-16T07:44:55.658Z,8.20
2023-04-16T07:47:23.941Z,8.50
2023-04-16T07:49:52.320Z,8.10
2023-04-16T07:52:20.628Z,8.10
2023-04-16T07:54:49.072Z,8.20
2023-04-16T07:57:17.366Z,7.90
2023-04-16T07:59:45.499Z,7.40
2023-04-16T08:02:19.662Z,7.40
2023-04-16T08:04:47.921Z,6.80
2023-04-16T08:07:16.198Z,7.50
2023-04-16T08:09:49.689Z,6.40
2023-04-16T08:12:18.379Z,6.80
2023-04-16T08:14:47.064Z,5.90
2023-04-16T08:17:15.927Z,5.40
2023-04-16T08:19:45.363Z,5.10
2023-04-16T08:22:13.802Z,5.00
2023-04-16T08:24:42.116Z,6.20
2023-04-16T08:27:19.015Z,4.60
2023-04-16T08:29:48.432Z,5.10
2023-04-16T08:32:16.892Z,5.00
2023-04-16T08:34:45.010Z,4.20
2023-04-16T08:37:13.242Z,3.50
2023-04-16T08:39:41.510Z,3.30
2023-04-16T08:42:18.496Z,2.80
2023-04-16T08:44:50.037Z,2.70
2023-04-16T08:47:19.768Z,2.60
2023-04-16T08:49:47.923Z,2.40
2023-04-16T08:52:20.259Z,2.00
2023-04-16T08:54:56.762Z,2.10
2023-04-16T08:57:36.013Z,2.10
2023-04-16T09:00:06.718Z,2.30
2023-04-16T09:02:35.848Z,1.90
2023-04-16T09:05:07.401Z,2.10
2023-04-16T09:07:36.972Z,2.10
2023-04-16T09:10:08.295Z,2.50
2023-04-16T09:12:36.617Z,2.40
2023-04-16T09:15:06.627Z,2.40
2023-04-16T09:17:35.076Z,2.90
2023-04-16T09:20:12.543Z,2.80
2023-04-16T09:22:40.718Z,2.40
2023-04-16T09:25:09.887Z,2.60
2023-04-16T09:27:38.450Z,2.40
2023-04-16T09:30:27.298Z,2.30
2023-04-16T09:35:53.765Z,3.20
2023-04-16T09:38:22.095Z,2.60
2023-04-16T09:41:07.287Z,2.80
2023-04-16T09:43:39.190Z,2.80
2023-04-16T09:46:11.487Z,2.80
2023-04-16T09:48:39.706Z,2.40
2023-04-16T09:51:07.824Z,2.90
2023-04-16T09:53:38.952Z,2.60
2023-04-16T09:56:09.524Z,2.80
2023-04-16T09:58:38.582Z,2.60
2023-04-16T10:01:11.484Z,2.60
2023-04-16T10:03:41.296Z,3.20
2023-04-16T10:06:20.842Z,3.20
2023-04-16T10:08:57.273Z,2.80
2023-04-16T10:11:26.487Z,3.00
2023-04-16T10:13:54.768Z,3.30
2023-04-16T10:16:24.012Z,3.10
2023-04-16T10:18:54.428Z,3.00
2023-04-16T10:21:22.996Z,2.70
2023-04-16T10:23:52.178Z,3.10
2023-04-16T10:26:21.744Z,2.80
2023-04-16T10:28:50.264Z,3.00
2023-04-16T10:31:18.500Z,2.70
2023-04-16T10:33:46.881Z,2.70
2023-04-16T10:36:16.946Z,2.90
2023-04-16T10:38:47.180Z,2.80
2023-04-16T10:41:16.562Z,3.00
2023-04-16T10:43:49.479Z,3.00
2023-04-16T10:46:41.618Z,2.70
2023-04-16T10:49:18.026Z,2.60
2023-04-16T10:51:55.249Z,2.70
2023-04-16T10:54:26.778Z,2.50
2023-04-16T10:57:06.416Z,2.50
2023-04-16T10:59:37.113Z,2.50
2023-04-16T11:02:13.144Z,2.30
2023-04-16T11:04:49.830Z,2.70
2023-04-16T11:07:18.190Z,2.50
2023-04-16T11:10:02.572Z,2.50
2023-04-16T11:12:41.549Z,2.20
2023-04-16T11:15:14.646Z,2.10
2023-04-16T11:17:50.490Z,2.00
2023-04-16T11:20:20.879Z,2.50
2023-04-16T11:22:50.501Z,2.20
2023-04-16T11:25:23.293Z,2.10
2023-04-16T11:27:52.132Z,2.30
2023-04-16T11:32:56.746Z,2.30
2023-04-16T11:35:25.331Z,2.40
2023-04-16T11:37:57.500Z,2.10
2023-04-16T11:40:29.300Z,1.90
2023-04-16T11:43:04.297Z,1.80
2023-04-16T11:45:32.346Z,2.10
2023-04-16T11:48:00.756Z,1.80
2023-04-16T11:50:29.202Z,1.80
2023-04-16T11:53:04.607Z,1.80
2023-04-16T11:55:32.845Z,1.70
2023-04-16T11:58:13.640Z,1.90
2023-04-16T12:00:43.221Z,1.90
2023-04-16T12:03:11.402Z,1.90
2023-04-16T12:05:40.821Z,1.80
2023-04-16T12:08:11.022Z,1.70
2023-04-16T12:10:56.100Z,1.60
2023-04-16T12:13:24.280Z,1.80
2023-04-16T12:15:54.878Z,1.70
2023-04-16T12:18:27.132Z,1.70
2023-04-16T12:20:55.649Z,1.70
2023-04-16T12:23:29.254Z,1.80
2023-04-16T12:26:02.709Z,2.00
2023-04-16T12:28:33.928Z,1.70
2023-04-16T12:31:03.490Z,1.80
2023-04-16T12:33:32.166Z,1.90
2023-04-16T12:36:01.714Z,1.70
2023-04-16T12:38:30.360Z,1.80
2023-04-16T12:40:59.194Z,2.00
2023-04-16T12:43:27.769Z,1.70
2023-04-16T12:48:24.307Z,1.90
2023-04-16T12:50:54.941Z,1.80
2023-04-16T12:53:23.221Z,1.80
2023-04-16T12:55:51.643Z,1.80
2023-04-16T12:58:19.896Z,1.90
2023-04-16T13:00:48.150Z,1.80
2023-04-16T13:03:16.413Z,2.00
2023-04-16T13:05:45.681Z,1.70
2023-04-16T13:08:13.940Z,1.80
2023-04-16T13:10:42.180Z,1.60
2023-04-16T13:13:12.848Z,1.70
2023-04-16T13:15:41.161Z,1.50
2023-04-16T13:18:09.168Z,1.60
2023-04-16T13:20:37.562Z,1.70
2023-04-16T13:23:05.827Z,1.90
2023-04-16T13:25:34.508Z,1.90
2023-04-16T13:28:02.586Z,2.10
2023-04-16T13:30:31.880Z,1.90
2023-04-16T13:33:00.146Z,1.70
2023-04-16T13:35:28.232Z,1.70
2023-04-16T13:37:56.501Z,1.70
2023-04-16T13:40:24.554Z,1.70
2023-04-16T13:42:52.747Z,1.90
2023-04-16T13:45:21.130Z,2.00
2023-04-16T13:47:56.804Z,1.90
2023-04-16T13:50:24.842Z,1.70
2023-04-16T13:52:53.012Z,1.80
2023-04-16T13:55:21.173Z,1.80
2023-04-16T13:57:50.204Z,1.80
2023-04-16T14:00:20.824Z,1.70
2023-04-16T14:02:49.523Z,2.50
2023-04-16T14:05:19.439Z,1.90
2023-04-16T14:07:47.697Z,1.90
2023-04-16T14:10:16.077Z,1.90
2023-04-16T14:12:45.283Z,1.80
2023-04-16T14:17:45.744Z,2.00
2023-04-16T14:20:14.521Z,1.90
2023-04-16T14:22:44.184Z,1.90
2023-04-16T14:25:12.474Z,1.80
2023-04-16T14:27:43.336Z,1.80
2023-04-16T14:30:13.566Z,1.70
2023-04-16T14:32:41.851Z,1.80
2023-04-16T14:35:10.366Z,1.80
2023-04-16T14:37:41.562Z,1.70
2023-04-16T14:40:11.112Z,1.60
2023-04-16T14:42:39.672Z,1.60
2023-04-16T14:45:09.218Z,1.60
2023-04-16T14:47:38.629Z,1.60
2023-04-16T14:50:07.663Z,1.30
2023-04-16T14:52:36.009Z,1.50
2023-04-16T14:55:05.556Z,1.60
2023-04-16T14:57:35.972Z,1.60
2023-04-16T15:00:10.294Z,1.80
2023-04-16T15:02:38.832Z,1.60
2023-04-16T15:05:09.926Z,1.70
2023-04-16T15:07:38.511Z,1.40
2023-04-16T15:10:25.212Z,1.60
2023-04-16T15:12:53.687Z,1.60
2023-04-16T15:15:21.979Z,1.90
2023-04-16T15:17:53.361Z,1.60
2023-04-16T15:20:24.539Z,1.60
2023-04-16T15:22:52.775Z,1.80
2023-04-16T15:25:21.094Z,1.50
2023-04-16T15:27:52.158Z,1.40
2023-04-16T15:30:20.702Z,1.20
2023-04-16T15:32:49.086Z,0.90
2023-04-16T15:35:17.307Z,1.10
2023-04-16T15:37:55.446Z,1.30
2023-04-16T15:40:25.288Z,1.00
2023-04-16T15:42:56.069Z,1.40
2023-04-16T15:45:24.390Z,1.30
2023-04-16T15:47:52.807Z,1.50
2023-04-16T15:50:21.290Z,1.60
2023-04-16T15:52:49.575Z,1.30
2023-04-16T15:55:18.573Z,1.40
2023-04-16T15:57:46.640Z,1.30
2023-04-16T16:00:17.210Z,1.50
2023-04-16T16:02:49.325Z,1.50
2023-04-16T16:05:17.710Z,1.50
2023-04-16T16:07:46.423Z,1.50
2023-04-16T16:10:14.526Z,1.40
2023-04-16T16:12:42.880Z,1.50
2023-04-16T16:15:11.380Z,1.50
2023-04-16T16:17:40.832Z,1.70
2023-04-16T16:20:13.004Z,1.70
2023-04-16T16:22:43.085Z,1.70
2023-04-16T16:25:11.408Z,1.80
2023-04-16T16:27:40.805Z,1.70
2023-04-16T16:30:09.805Z,1.70
2023-04-16T16:32:41.095Z,2.80
2023-04-16T16:35:11.075Z,3.50
2023-04-16T16:37:39.589Z,3.40
2023-04-16T16:40:08.944Z,3.60
2023-04-16T16:42:37.130Z,3.10
2023-04-16T16:45:06.333Z,2.60
2023-04-16T16:50:03.317Z,2.00
2023-04-16T16:52:32.273Z,2.20
2023-04-16T16:55:01.387Z,1.60
2023-04-16T16:57:29.463Z,1.70
2023-04-16T16:59:57.626Z,2.00
2023-04-16T17:02:25.812Z,2.10
2023-04-16T17:04:54.074Z,1.70
2023-04-16T17:07:22.153Z,2.10
2023-04-16T17:09:50.438Z,1.70
2023-04-16T17:12:18.608Z,1.70
2023-04-16T17:14:50.151Z,1.90
2023-04-16T17:17:19.164Z,1.90
2023-04-16T17:19:47.417Z,1.70
2023-04-16T17:22:18.664Z,1.70
2023-04-16T17:24:47.252Z,1.90
2023-04-16T17:27:15.576Z,1.90
2023-04-16T17:29:43.735Z,2.10
2023-04-16T17:32:11.895Z,2.40
2023-04-16T17:34:40.266Z,2.70
2023-04-16T17:37:08.619Z,2.10
2023-04-16T17:39:37.112Z,2.30
2023-04-16T17:42:05.500Z,2.40
2023-04-16T17:44:33.705Z,2.90
2023-04-16T17:47:02.260Z,2.20
2023-04-16T17:49:30.608Z,2.00
2023-04-16T17:51:58.903Z,1.90
2023-04-16T17:54:27.089Z,2.10
2023-04-16T17:56:55.358Z,2.00
2023-04-16T17:59:23.413Z,1.90
2023-04-16T18:01:52.170Z,2.00
2023-04-16T18:04:20.701Z,1.90
2023-04-16T18:06:49.048Z,1.80
2023-04-16T18:09:17.351Z,1.90
2023-04-16T18:11:45.718Z,1.80
2023-04-16T18:14:16.886Z,1.80
2023-04-16T18:16:47.001Z,2.50
2023-04-16T18:19:17.946Z,1.80
2023-04-16T18:21:46.213Z,1.80
2023-04-16T18:24:15.511Z,1.70
2023-04-16T18:26:46.913Z,1.70
2023-04-16T18:29:15.585Z,1.60
2023-04-16T18:31:45.139Z,1.80
2023-04-16T18:34:15.602Z,1.80
2023-04-16T18:36:43.878Z,1.70
2023-04-16T18:39:12.143Z,1.70
2023-04-16T18:41:40.978Z,1.70
2023-04-16T18:44:19.938Z,1.80
2023-04-16T18:46:50.902Z,2.00
2023-04-16T18:49:19.170Z,5.20
2023-04-16T18:51:47.442Z,5.50
2023-04-16T18:54:15.615Z,8.30
2023-04-16T18:56:43.793Z,5.40
2023-04-16T18:59:12.551Z,9.20
2023-04-16T19:01:41.472Z,3.20
2023-04-16T19:04:09.902Z,5.50
2023-04-16T19:06:40.586Z,6.10
2023-04-16T19:09:11.291Z,5.00
2023-04-16T19:11:39.880Z,2.60
2023-04-16T19:14:20.161Z,1.50
2023-04-16T19:16:57.350Z,1.60
2023-04-16T19:19:25.583Z,1.70
2023-04-16T19:21:53.804Z,1.60
2023-04-16T19:24:23.734Z,1.50
2023-04-16T19:26:51.898Z,1.60
2023-04-16T19:29:33.480Z,1.70
2023-04-16T19:32:02.660Z,2.00
2023-04-16T19:34:31.080Z,2.00
2023-04-16T19:36:59.213Z,1.80
2023-04-16T19:39:30.480Z,1.90
2023-04-16T19:41:58.482Z,1.80
2023-04-16T19:44:27.717Z,1.90
2023-04-16T19:46:56.643Z,1.70
2023-04-16T19:49:34.524Z,1.90
2023-04-16T19:52:02.946Z,2.10
2023-04-16T19:54:33.825Z,2.00
2023-04-16T19:57:02.238Z,1.90
2023-04-16T19:59:32.370Z,1.70
2023-04-16T20:02:00.828Z,1.70
2023-04-16T20:04:29.060Z,2.00
2023-04-16T20:06:57.298Z,1.90
2023-04-16T20:09:25.878Z,2.00
2023-04-16T20:11:53.919Z,1.90
2023-04-16T20:14:22.032Z,2.10
2023-04-16T20:16:50.406Z,1.60
2023-04-16T20:19:19.700Z,1.80
2023-04-16T20:21:47.774Z,2.00
2023-04-16T20:24:16.099Z,2.00
2023-04-16T20:26:44.121Z,2.20
2023-04-16T20:29:12.382Z,2.00
2023-04-16T20:31:43.028Z,2.30
2023-04-16T20:34:11.335Z,2.30
2023-04-16T20:36:39.603Z,2.30
2023-04-16T20:39:08.180Z,2.70
2023-04-16T20:41:40.333Z,2.60
2023-04-16T20:44:10.245Z,1.90
2023-04-16T20:46:38.971Z,2.20
2023-04-16T20:54:10.431Z,2.10
2023-04-16T20:56:38.705Z,1.90
2023-04-16T20:59:06.875Z,2.50
2023-04-16T21:01:35.549Z,2.00
2023-04-16T21:04:04.272Z,2.00
2023-04-16T21:06:34.100Z,2.00
2023-04-16T21:09:02.450Z,2.00
2023-04-16T21:11:33.499Z,1.70
2023-04-16T21:14:02.929Z,2.10
2023-04-16T21:16:32.146Z,1.60
2023-04-16T21:19:00.667Z,1.80
2023-04-16T21:21:28.692Z,1.60
2023-04-16T21:23:56.838Z,1.70
2023-04-16T21:26:25.001Z,1.90
2023-04-16T21:28:55.062Z,1.80
2023-04-16T21:31:26.888Z,1.90
2023-04-16T21:34:02.649Z,1.70
2023-04-16T21:36:34.206Z,1.60
2023-04-16T21:39:02.664Z,1.60
2023-04-16T21:41:30.931Z,1.80
2023-04-16T21:43:59.191Z,1.80
2023-04-16T21:46:27.902Z,1.70
2023-04-16T21:48:56.070Z,1.70
2023-04-16T21:51:29.527Z,1.70
2023-04-16T21:53:58.660Z,1.70
2023-04-16T21:56:28.072Z,1.70
2023-04-16T21:58:56.191Z,1.50
2023-04-16T22:01:24.365Z,1.60
2023-04-16T22:03:52.829Z,1.50
2023-04-16T22:06:21.179Z,1.60
2023-04-16T22:08:50.149Z,1.80
2023-04-16T22:11:18.524Z,1.50
2023-04-16T22:13:47.855Z,1.90
2023-04-16T22:18:45.226Z,1.50
2023-04-16T22:21:13.469Z,1.60
2023-04-16T22:23:41.770Z,1.50
2023-04-16T22:26:10.170Z,1.70
2023-04-16T22:28:38.311Z,1.60
2023-04-16T22:31:06.911Z,1.80
2023-04-16T22:33:35.197Z,1.80
2023-04-16T22:36:03.677Z,1.60
2023-04-16T22:38:31.962Z,1.60
2023-04-16T22:41:00.258Z,1.50
2023-04-16T22:43:28.625Z,1.90
2023-04-16T22:46:07.305Z,1.70
2023-04-16T22:48:38.102Z,1.50
2023-04-16T22:51:08.775Z,1.50
2023-04-16T22:53:37.271Z,1.50
2023-04-16T22:56:09.740Z,1.60
2023-04-16T22:58:38.535Z,1.80
2023-04-16T23:01:09.494Z,1.60
2023-04-16T23:03:41.633Z,1.60
2023-04-16T23:06:10.428Z,1.60
2023-04-16T23:09:06.372Z,1.70
2023-04-16T23:11:46.429Z,1.60
2023-04-16T23:14:16.790Z,1.60
2023-04-16T23:16:45.078Z,1.80
2023-04-16T23:19:26.191Z,1.60
2023-04-16T23:21:56.829Z,1.50
2023-04-16T23:24:45.341Z,1.90
2023-04-16T23:27:33.822Z,1.90
2023-04-16T23:30:03.124Z,1.80
2023-04-16T23:35:22.876Z,1.80
2023-04-16T23:37:51.644Z,1.60
2023-04-16T23:40:19.992Z,1.90
2023-04-16T23:42:48.163Z,1.70
2023-04-16T23:45:26.637Z,1.90
2023-04-16T23:47:55.143Z,1.90
2023-04-16T23:50:23.338Z,1.90
2023-04-16T23:52:51.623Z,1.80
2023-04-16T23:55:19.852Z,1.90
2023-04-16T23:57:47.970Z,1.60
